UKKK/IEV METAR and TAF weather

Enter ICAO airport designator
Station Type Date Time Source
UKKK METAR 2019/04/18 10:30 UTC NOAA

UKKK 181030Z 01002MPS CAVOK 14/00 Q1028 R08/CLRD70 NOSIG


Station Type Date Time Source
UKKK Decoded METAR 2019/04/18 10:30 UTC NOAA

Kyiv, Ukraine (UKKK) 50-24N 030-34E 167M
Apr 18, 2019 - 06:30 AM EDT / 2019.04.18 1030 UTC
Wind: from the N (010 degrees) at 4 MPH (4 KT):0
Visibility: greater than 7 mile(s):0
Temperature: 57 F (14 C)
Dew Point: 32 F (0 C)
Relative Humidity: 38%
Pressure (altimeter): 30.36 in. Hg (1028 hPa)
ob: UKKK 181030Z 01002MPS CAVOK 14/00 Q1028 R08/CLRD70 NOSIG
cycle: 10

Station Type Date Time Source
UKKK TAF 2019/04/18 06:09 UTC NOAA

TAF UKKK 180503Z 1806/1906 05003G08MPS CAVOK TX15/1812Z TN02/1903Z
BECMG 1810/1812 36005G11MPS
BECMG 1816/1818 32003G08MPS 9999 BKN015
TEMPO 1818/1906 36006G11MPS 3000 -SHRA BKN007 SCT015CB

Example: see airport list